sensor_id;sensor_type;location;lat;lon;timestamp;pressure;altitude;pressure_sealevel;temperature;humidity
75855;BME280;64502;59.976;30.316;2023-06-26T00:02:17;101327.66;;;17.82;71.53
75855;BME280;64502;59.976;30.316;2023-06-26T00:04:43;101319.66;;;17.82;71.99
75855;BME280;64502;59.976;30.316;2023-06-26T00:07:09;101322.31;;;17.82;71.83
75855;BME280;64502;59.976;30.316;2023-06-26T00:09:35;101318.06;;;17.80;71.57
75855;BME280;64502;59.976;30.316;2023-06-26T00:12:00;101318.81;;;17.82;72.17
75855;BME280;64502;59.976;30.316;2023-06-26T00:14:26;101315.41;;;17.80;71.82
75855;BME280;64502;59.976;30.316;2023-06-26T00:16:52;101326.09;;;17.80;72.42
75855;BME280;64502;59.976;30.316;2023-06-26T00:19:18;101333.25;;;17.79;71.68
75855;BME280;64502;59.976;30.316;2023-06-26T00:21:44;101334.16;;;17.78;72.29
75855;BME280;64502;59.976;30.316;2023-06-26T00:24:16;101332.59;;;17.75;72.54
75855;BME280;64502;59.976;30.316;2023-06-26T00:26:43;101324.09;;;17.70;72.33
75855;BME280;64502;59.976;30.316;2023-06-26T00:29:08;101318.16;;;17.67;72.63
75855;BME280;64502;59.976;30.316;2023-06-26T00:31:34;101322.88;;;17.63;73.32
75855;BME280;64502;59.976;30.316;2023-06-26T00:34:00;101319.38;;;17.63;73.26
75855;BME280;64502;59.976;30.316;2023-06-26T00:36:26;101323.13;;;17.60;73.24
75855;BME280;64502;59.976;30.316;2023-06-26T00:38:52;101328.47;;;17.60;72.70
75855;BME280;64502;59.976;30.316;2023-06-26T00:41:18;101326.75;;;17.59;73.37
75855;BME280;64502;59.976;30.316;2023-06-26T00:43:44;101319.84;;;17.57;73.28
75855;BME280;64502;59.976;30.316;2023-06-26T00:46:10;101322.75;;;17.53;73.19
75855;BME280;64502;59.976;30.316;2023-06-26T00:48:37;101317.53;;;17.52;73.96
75855;BME280;64502;59.976;30.316;2023-06-26T00:51:04;101307.22;;;17.47;73.08
75855;BME280;64502;59.976;30.316;2023-06-26T00:53:30;101308.19;;;17.46;73.39
75855;BME280;64502;59.976;30.316;2023-06-26T00:55:56;101307.13;;;17.49;73.37
75855;BME280;64502;59.976;30.316;2023-06-26T00:58:23;101309.53;;;17.52;73.52
75855;BME280;64502;59.976;30.316;2023-06-26T01:00:50;101298.72;;;17.53;72.96
75855;BME280;64502;59.976;30.316;2023-06-26T01:03:15;101306.63;;;17.55;72.61
75855;BME280;64502;59.976;30.316;2023-06-26T01:05:41;101305.53;;;17.58;72.29
75855;BME280;64502;59.976;30.316;2023-06-26T01:08:07;101309.78;;;17.60;72.32
75855;BME280;64502;59.976;30.316;2023-06-26T01:10:34;101302.38;;;17.64;71.91
75855;BME280;64502;59.976;30.316;2023-06-26T01:12:59;101304.69;;;17.68;72.09
75855;BME280;64502;59.976;30.316;2023-06-26T01:15:25;101309.66;;;17.73;71.89
75855;BME280;64502;59.976;30.316;2023-06-26T01:17:51;101307.47;;;17.78;71.78
75855;BME280;64502;59.976;30.316;2023-06-26T01:20:17;101304.59;;;17.81;70.85
75855;BME280;64502;59.976;30.316;2023-06-26T01:28:06;101306.91;;;17.97;70.72
75855;BME280;64502;59.976;30.316;2023-06-26T01:30:32;101303.88;;;18.02;70.69
75855;BME280;64502;59.976;30.316;2023-06-26T01:33:00;101303.72;;;18.03;70.71
75855;BME280;64502;59.976;30.316;2023-06-26T01:35:26;101305.31;;;18.06;70.39
75855;BME280;64502;59.976;30.316;2023-06-26T01:37:52;101302.28;;;18.10;70.84
75855;BME280;64502;59.976;30.316;2023-06-26T01:40:18;101298.41;;;18.14;70.36
75855;BME280;64502;59.976;30.316;2023-06-26T01:42:43;101297.88;;;18.21;70.19
75855;BME280;64502;59.976;30.316;2023-06-26T01:45:24;101291.19;;;18.26;69.68
75855;BME280;64502;59.976;30.316;2023-06-26T01:47:52;101296.41;;;18.28;69.97
75855;BME280;64502;59.976;30.316;2023-06-26T01:50:22;101296.75;;;18.34;69.40
75855;BME280;64502;59.976;30.316;2023-06-26T01:52:51;101298.94;;;18.40;69.15
75855;BME280;64502;59.976;30.316;2023-06-26T01:55:32;101305.06;;;18.52;68.95
75855;BME280;64502;59.976;30.316;2023-06-26T01:58:02;101296.56;;;18.58;68.72
75855;BME280;64502;59.976;30.316;2023-06-26T02:00:28;101297.75;;;18.66;68.39
75855;BME280;64502;59.976;30.316;2023-06-26T02:02:54;101292.03;;;18.70;68.04
75855;BME280;64502;59.976;30.316;2023-06-26T02:05:20;101289.69;;;18.77;67.89
75855;BME280;64502;59.976;30.316;2023-06-26T02:07:45;101291.75;;;18.84;67.67
75855;BME280;64502;59.976;30.316;2023-06-26T02:10:11;101290.25;;;18.92;67.45
75855;BME280;64502;59.976;30.316;2023-06-26T02:12:37;101293.13;;;19.00;67.48
75855;BME280;64502;59.976;30.316;2023-06-26T02:15:03;101282.75;;;19.06;66.98
75855;BME280;64502;59.976;30.316;2023-06-26T02:17:29;101286.22;;;19.18;66.76
75855;BME280;64502;59.976;30.316;2023-06-26T02:19:55;101292.63;;;19.27;65.98
75855;BME280;64502;59.976;30.316;2023-06-26T02:22:20;101291.53;;;19.39;65.68
75855;BME280;64502;59.976;30.316;2023-06-26T02:24:45;101295.41;;;19.46;65.33
75855;BME280;64502;59.976;30.316;2023-06-26T02:27:11;101297.25;;;19.56;64.51
75855;BME280;64502;59.976;30.316;2023-06-26T02:29:38;101292.09;;;19.64;64.65
75855;BME280;64502;59.976;30.316;2023-06-26T02:32:04;101293.16;;;19.72;64.23
75855;BME280;64502;59.976;30.316;2023-06-26T02:34:30;101294.31;;;19.80;63.47
75855;BME280;64502;59.976;30.316;2023-06-26T02:36:55;101295.75;;;19.84;63.74
75855;BME280;64502;59.976;30.316;2023-06-26T02:39:21;101298.28;;;19.85;63.67
75855;BME280;64502;59.976;30.316;2023-06-26T02:41:48;101296.31;;;19.87;62.97
75855;BME280;64502;59.976;30.316;2023-06-26T02:44:13;101297.72;;;19.91;63.00
75855;BME280;64502;59.976;30.316;2023-06-26T02:46:40;101299.16;;;19.95;62.75
75855;BME280;64502;59.976;30.316;2023-06-26T02:49:06;101308.47;;;20.01;62.58
75855;BME280;64502;59.976;30.316;2023-06-26T02:51:35;101300.44;;;20.01;62.53
75855;BME280;64502;59.976;30.316;2023-06-26T02:54:00;101302.56;;;19.98;62.13
75855;BME280;64502;59.976;30.316;2023-06-26T02:56:26;101310.88;;;19.94;61.93
75855;BME280;64502;59.976;30.316;2023-06-26T02:58:57;101312.44;;;19.97;62.36
75855;BME280;64502;59.976;30.316;2023-06-26T03:01:23;101300.28;;;19.93;62.03
75855;BME280;64502;59.976;30.316;2023-06-26T03:03:49;101305.91;;;19.90;62.52
75855;BME280;64502;59.976;30.316;2023-06-26T03:06:15;101300.81;;;19.87;62.27
75855;BME280;64502;59.976;30.316;2023-06-26T03:08:41;101305.72;;;19.82;62.09
75855;BME280;64502;59.976;30.316;2023-06-26T03:11:07;101301.63;;;19.78;62.43
75855;BME280;64502;59.976;30.316;2023-06-26T03:13:36;101305.28;;;19.77;62.88
75855;BME280;64502;59.976;30.316;2023-06-26T03:16:03;101306.41;;;19.74;63.30
75855;BME280;64502;59.976;30.316;2023-06-26T03:18:28;101298.38;;;19.74;63.02
75855;BME280;64502;59.976;30.316;2023-06-26T03:20:55;101294.69;;;19.75;62.91
75855;BME280;64502;59.976;30.316;2023-06-26T03:23:21;101298.09;;;19.77;63.03
75855;BME280;64502;59.976;30.316;2023-06-26T03:25:47;101299.53;;;19.81;62.40
75855;BME280;64502;59.976;30.316;2023-06-26T03:28:13;101294.75;;;19.85;63.12
75855;BME280;64502;59.976;30.316;2023-06-26T03:30:38;101296.19;;;19.89;62.79
75855;BME280;64502;59.976;30.316;2023-06-26T03:33:04;101290.69;;;19.90;62.53
75855;BME280;64502;59.976;30.316;2023-06-26T03:35:29;101289.28;;;19.96;62.74
75855;BME280;64502;59.976;30.316;2023-06-26T03:37:55;101291.56;;;20.01;62.70
75855;BME280;64502;59.976;30.316;2023-06-26T03:40:20;101289.44;;;20.04;62.68
75855;BME280;64502;59.976;30.316;2023-06-26T03:42:46;101293.56;;;20.08;62.33
75855;BME280;64502;59.976;30.316;2023-06-26T03:45:11;101290.72;;;20.10;62.67
75855;BME280;64502;59.976;30.316;2023-06-26T03:47:37;101303.16;;;20.11;62.53
75855;BME280;64502;59.976;30.316;2023-06-26T03:50:03;101299.78;;;20.09;62.34
75855;BME280;64502;59.976;30.316;2023-06-26T03:52:28;101290.88;;;20.08;62.40
75855;BME280;64502;59.976;30.316;2023-06-26T03:54:57;101291.84;;;20.07;62.93
75855;BME280;64502;59.976;30.316;2023-06-26T03:57:22;101292.56;;;20.09;62.78
75855;BME280;64502;59.976;30.316;2023-06-26T03:59:48;101286.22;;;20.10;62.27
75855;BME280;64502;59.976;30.316;2023-06-26T04:02:13;101287.94;;;20.11;62.27
75855;BME280;64502;59.976;30.316;2023-06-26T04:04:38;101284.25;;;20.12;62.02
75855;BME280;64502;59.976;30.316;2023-06-26T04:07:05;101295.41;;;20.17;62.48
75855;BME280;64502;59.976;30.316;2023-06-26T04:09:30;101291.72;;;20.18;62.34
75855;BME280;64502;59.976;30.316;2023-06-26T04:11:55;101291.91;;;20.27;62.19
75855;BME280;64502;59.976;30.316;2023-06-26T04:14:21;101289.66;;;20.32;62.09
75855;BME280;64502;59.976;30.316;2023-06-26T04:16:47;101287.28;;;20.38;62.00
75855;BME280;64502;59.976;30.316;2023-06-26T04:19:12;101290.41;;;20.44;61.18
75855;BME280;64502;59.976;30.316;2023-06-26T04:21:38;101289.81;;;20.50;61.94
75855;BME280;64502;59.976;30.316;2023-06-26T04:24:04;101289.44;;;20.54;61.14
75855;BME280;64502;59.976;30.316;2023-06-26T04:26:30;101289.72;;;20.61;60.99
75855;BME280;64502;59.976;30.316;2023-06-26T04:28:55;101292.00;;;20.66;60.65
75855;BME280;64502;59.976;30.316;2023-06-26T04:31:21;101279.84;;;20.71;60.48
75855;BME280;64502;59.976;30.316;2023-06-26T04:33:47;101285.78;;;20.75;60.61
75855;BME280;64502;59.976;30.316;2023-06-26T04:36:19;101287.75;;;20.82;60.04
75855;BME280;64502;59.976;30.316;2023-06-26T04:38:44;101281.09;;;20.87;59.42
75855;BME280;64502;59.976;30.316;2023-06-26T04:41:10;101271.63;;;20.92;59.11
75855;BME280;64502;59.976;30.316;2023-06-26T04:43:35;101277.28;;;20.99;59.38
75855;BME280;64502;59.976;30.316;2023-06-26T04:46:02;101279.38;;;21.05;58.86
75855;BME280;64502;59.976;30.316;2023-06-26T04:48:28;101274.56;;;21.09;58.54
75855;BME280;64502;59.976;30.316;2023-06-26T04:50:55;101265.09;;;21.14;57.93
75855;BME280;64502;59.976;30.316;2023-06-26T04:53:22;101271.75;;;21.20;57.80
75855;BME280;64502;59.976;30.316;2023-06-26T04:55:51;101273.97;;;21.24;57.37
75855;BME280;64502;59.976;30.316;2023-06-26T04:58:17;101267.47;;;21.27;57.10
75855;BME280;64502;59.976;30.316;2023-06-26T05:00:43;101267.03;;;21.32;56.75
75855;BME280;64502;59.976;30.316;2023-06-26T05:03:12;101272.56;;;21.40;56.60
75855;BME280;64502;59.976;30.316;2023-06-26T05:05:38;101274.13;;;21.42;56.49
75855;BME280;64502;59.976;30.316;2023-06-26T05:08:26;101272.09;;;21.54;57.63
75855;BME280;64502;59.976;30.316;2023-06-26T05:10:52;101271.78;;;21.57;56.23
75855;BME280;64502;59.976;30.316;2023-06-26T05:13:23;101279.25;;;21.63;56.02
75855;BME280;64502;59.976;30.316;2023-06-26T05:15:49;101269.22;;;21.65;55.64
75855;BME280;64502;59.976;30.316;2023-06-26T05:18:14;101271.47;;;21.70;55.49
75855;BME280;64502;59.976;30.316;2023-06-26T05:20:40;101270.00;;;21.76;55.54
75855;BME280;64502;59.976;30.316;2023-06-26T05:23:06;101272.94;;;21.82;55.63
75855;BME280;64502;59.976;30.316;2023-06-26T05:25:32;101269.50;;;21.90;55.51
75855;BME280;64502;59.976;30.316;2023-06-26T05:27:59;101271.59;;;21.96;55.18
75855;BME280;64502;59.976;30.316;2023-06-26T05:30:25;101273.00;;;22.00;55.29
75855;BME280;64502;59.976;30.316;2023-06-26T05:32:52;101270.53;;;22.07;55.14
75855;BME280;64502;59.976;30.316;2023-06-26T05:35:18;101273.31;;;22.15;54.76
75855;BME280;64502;59.976;30.316;2023-06-26T05:37:45;101272.78;;;22.21;53.33
75855;BME280;64502;59.976;30.316;2023-06-26T05:40:12;101276.00;;;22.25;53.14
75855;BME280;64502;59.976;30.316;2023-06-26T05:42:38;101273.16;;;22.26;52.61
75855;BME280;64502;59.976;30.316;2023-06-26T05:45:04;101271.84;;;22.30;52.79
75855;BME280;64502;59.976;30.316;2023-06-26T05:47:29;101269.69;;;22.34;52.25
75855;BME280;64502;59.976;30.316;2023-06-26T05:49:55;101272.94;;;22.37;52.09
75855;BME280;64502;59.976;30.316;2023-06-26T05:52:21;101269.78;;;22.42;51.56
75855;BME280;64502;59.976;30.316;2023-06-26T05:54:46;101267.47;;;22.47;51.53
75855;BME280;64502;59.976;30.316;2023-06-26T05:57:12;101269.72;;;22.52;51.64
75855;BME280;64502;59.976;30.316;2023-06-26T05:59:40;101272.94;;;22.55;51.96
75855;BME280;64502;59.976;30.316;2023-06-26T06:02:06;101272.63;;;22.58;51.27
75855;BME280;64502;59.976;30.316;2023-06-26T06:04:32;101266.78;;;22.63;51.93
75855;BME280;64502;59.976;30.316;2023-06-26T06:06:57;101264.63;;;22.67;51.08
75855;BME280;64502;59.976;30.316;2023-06-26T06:09:23;101274.09;;;22.71;50.89
75855;BME280;64502;59.976;30.316;2023-06-26T06:11:48;101262.50;;;22.70;51.05
75855;BME280;64502;59.976;30.316;2023-06-26T06:14:14;101269.03;;;22.68;51.13
75855;BME280;64502;59.976;30.316;2023-06-26T06:16:39;101274.53;;;22.66;51.88
75855;BME280;64502;59.976;30.316;2023-06-26T06:19:04;101270.38;;;22.72;51.04
75855;BME280;64502;59.976;30.316;2023-06-26T06:21:32;101272.44;;;22.78;51.01
75855;BME280;64502;59.976;30.316;2023-06-26T06:23:57;101274.53;;;22.84;51.29
75855;BME280;64502;59.976;30.316;2023-06-26T06:26:23;101267.84;;;22.88;50.60
75855;BME280;64502;59.976;30.316;2023-06-26T06:28:48;101270.91;;;22.93;50.36
75855;BME280;64502;59.976;30.316;2023-06-26T06:31:14;101263.94;;;23.00;50.45
75855;BME280;64502;59.976;30.316;2023-06-26T06:33:39;101267.53;;;23.09;50.25
75855;BME280;64502;59.976;30.316;2023-06-26T06:36:05;101273.66;;;23.19;49.71
75855;BME280;64502;59.976;30.316;2023-06-26T06:38:30;101274.09;;;23.33;49.91
75855;BME280;64502;59.976;30.316;2023-06-26T06:40:56;101263.69;;;23.46;48.26
75855;BME280;64502;59.976;30.316;2023-06-26T06:43:22;101267.81;;;23.58;49.04
75855;BME280;64502;59.976;30.316;2023-06-26T06:45:47;101273.72;;;23.62;48.51
75855;BME280;64502;59.976;30.316;2023-06-26T06:48:13;101269.88;;;23.64;48.82
75855;BME280;64502;59.976;30.316;2023-06-26T06:50:38;101271.56;;;23.65;48.34
75855;BME280;64502;59.976;30.316;2023-06-26T06:53:04;101264.47;;;23.64;48.35
75855;BME280;64502;59.976;30.316;2023-06-26T06:55:29;101262.63;;;23.65;48.69
75855;BME280;64502;59.976;30.316;2023-06-26T06:57:55;101269.88;;;23.64;48.29
75855;BME280;64502;59.976;30.316;2023-06-26T07:00:20;101269.72;;;23.66;48.80
75855;BME280;64502;59.976;30.316;2023-06-26T07:02:46;101262.88;;;23.72;47.91
75855;BME280;64502;59.976;30.316;2023-06-26T07:05:12;101258.34;;;23.80;48.99
75855;BME280;64502;59.976;30.316;2023-06-26T07:07:38;101268.00;;;23.91;47.92
75855;BME280;64502;59.976;30.316;2023-06-26T07:12:29;101261.16;;;24.13;46.38
75855;BME280;64502;59.976;30.316;2023-06-26T07:14:56;101265.22;;;24.25;46.34
75855;BME280;64502;59.976;30.316;2023-06-26T07:17:22;101263.22;;;24.35;45.63
75855;BME280;64502;59.976;30.316;2023-06-26T07:19:49;101267.13;;;24.49;45.93
75855;BME280;64502;59.976;30.316;2023-06-26T07:22:14;101265.13;;;24.59;45.06
75855;BME280;64502;59.976;30.316;2023-06-26T07:24:40;101261.94;;;24.72;45.06
75855;BME280;64502;59.976;30.316;2023-06-26T07:27:05;101261.75;;;24.90;45.17
75855;BME280;64502;59.976;30.316;2023-06-26T07:29:31;101257.84;;;25.09;44.17
75855;BME280;64502;59.976;30.316;2023-06-26T07:31:56;101255.69;;;25.21;43.09
75855;BME280;64502;59.976;30.316;2023-06-26T07:34:22;101261.38;;;25.26;42.78
75855;BME280;64502;59.976;30.316;2023-06-26T07:36:47;101254.66;;;25.22;42.05
75855;BME280;64502;59.976;30.316;2023-06-26T07:39:12;101255.81;;;25.28;42.55
75855;BME280;64502;59.976;30.316;2023-06-26T07:41:38;101255.00;;;25.27;42.55
75855;BME280;64502;59.976;30.316;2023-06-26T07:44:03;101252.44;;;25.34;42.64
75855;BME280;64502;59.976;30.316;2023-06-26T07:46:29;101256.97;;;25.41;42.28
75855;BME280;64502;59.976;30.316;2023-06-26T07:48:55;101260.84;;;25.47;42.36
75855;BME280;64502;59.976;30.316;2023-06-26T07:51:20;101251.53;;;25.50;42.43
75855;BME280;64502;59.976;30.316;2023-06-26T07:53:46;101255.41;;;25.55;41.94
75855;BME280;64502;59.976;30.316;2023-06-26T07:56:12;101256.56;;;25.61;41.91
75855;BME280;64502;59.976;30.316;2023-06-26T07:58:37;101251.59;;;25.73;41.46
75855;BME280;64502;59.976;30.316;2023-06-26T08:01:03;101251.56;;;25.81;41.55
75855;BME280;64502;59.976;30.316;2023-06-26T08:03:28;101254.63;;;25.86;41.60
75855;BME280;64502;59.976;30.316;2023-06-26T08:05:54;101259.03;;;25.87;41.25
75855;BME280;64502;59.976;30.316;2023-06-26T08:08:19;101253.78;;;25.85;41.22
75855;BME280;64502;59.976;30.316;2023-06-26T08:10:45;101250.88;;;25.95;41.34
75855;BME280;64502;59.976;30.316;2023-06-26T08:13:10;101251.09;;;26.17;40.56
75855;BME280;64502;59.976;30.316;2023-06-26T08:15:35;101256.00;;;26.44;40.34
75855;BME280;64502;59.976;30.316;2023-06-26T08:18:01;101243.97;;;26.70;39.76
75855;BME280;64502;59.976;30.316;2023-06-26T08:20:27;101252.59;;;26.88;39.96
75855;BME280;64502;59.976;30.316;2023-06-26T08:22:53;101243.28;;;27.06;39.33
75855;BME280;64502;59.976;30.316;2023-06-26T08:25:19;101242.59;;;27.27;38.41
75855;BME280;64502;59.976;30.316;2023-06-26T08:27:45;101250.06;;;27.54;38.61
75855;BME280;64502;59.976;30.316;2023-06-26T08:30:11;101245.56;;;27.76;37.33
75855;BME280;64502;59.976;30.316;2023-06-26T08:32:36;101239.19;;;27.99;36.72
75855;BME280;64502;59.976;30.316;2023-06-26T08:35:02;101244.19;;;28.17;37.51
75855;BME280;64502;59.976;30.316;2023-06-26T08:37:27;101240.19;;;28.34;36.98
75855;BME280;64502;59.976;30.316;2023-06-26T08:39:53;101245.63;;;28.34;36.57
75855;BME280;64502;59.976;30.316;2023-06-26T08:42:18;101237.25;;;28.50;35.94
75855;BME280;64502;59.976;30.316;2023-06-26T08:44:44;101235.41;;;28.79;35.72
75855;BME280;64502;59.976;30.316;2023-06-26T08:47:11;101236.66;;;29.05;35.59
75855;BME280;64502;59.976;30.316;2023-06-26T08:52:24;101243.16;;;28.82;36.68
75855;BME280;64502;59.976;30.316;2023-06-26T08:54:58;101252.97;;;28.55;36.25
75855;BME280;64502;59.976;30.316;2023-06-26T08:57:26;101251.78;;;28.43;36.44
75855;BME280;64502;59.976;30.316;2023-06-26T08:59:53;101243.88;;;28.69;36.49
75855;BME280;64502;59.976;30.316;2023-06-26T09:02:19;101245.97;;;29.17;34.75
75855;BME280;64502;59.976;30.316;2023-06-26T09:04:47;101241.78;;;29.56;34.20
75855;BME280;64502;59.976;30.316;2023-06-26T09:07:13;101240.47;;;29.86;33.90
75855;BME280;64502;59.976;30.316;2023-06-26T09:09:38;101244.84;;;29.74;33.44
75855;BME280;64502;59.976;30.316;2023-06-26T09:12:04;101229.41;;;29.88;33.67
75855;BME280;64502;59.976;30.316;2023-06-26T09:14:30;101227.75;;;30.00;33.09
75855;BME280;64502;59.976;30.316;2023-06-26T09:16:55;101233.16;;;29.87;32.72
75855;BME280;64502;59.976;30.316;2023-06-26T09:19:21;101242.75;;;29.76;33.06
75855;BME280;64502;59.976;30.316;2023-06-26T09:21:49;101235.47;;;29.90;33.13
75855;BME280;64502;59.976;30.316;2023-06-26T09:24:16;101224.63;;;30.03;32.65
75855;BME280;64502;59.976;30.316;2023-06-26T09:26:42;101224.94;;;30.42;31.79
75855;BME280;64502;59.976;30.316;2023-06-26T09:29:08;101224.13;;;30.68;31.40
75855;BME280;64502;59.976;30.316;2023-06-26T09:31:38;101209.88;;;30.92;31.83
75855;BME280;64502;59.976;30.316;2023-06-26T09:34:04;101225.81;;;30.89;30.91
75855;BME280;64502;59.976;30.316;2023-06-26T09:36:31;101216.38;;;30.45;31.23
75855;BME280;64502;59.976;30.316;2023-06-26T09:39:05;101219.09;;;30.51;32.15
75855;BME280;64502;59.976;30.316;2023-06-26T09:41:37;101210.09;;;30.78;31.62
75855;BME280;64502;59.976;30.316;2023-06-26T09:44:06;101216.78;;;31.02;31.35
75855;BME280;64502;59.976;30.316;2023-06-26T09:46:33;101209.16;;;31.44;30.48
75855;BME280;64502;59.976;30.316;2023-06-26T09:49:02;101211.09;;;31.81;30.74
75855;BME280;64502;59.976;30.316;2023-06-26T09:51:30;101207.13;;;32.16;29.24
75855;BME280;64502;59.976;30.316;2023-06-26T09:53:56;101197.56;;;32.63;29.06
75855;BME280;64502;59.976;30.316;2023-06-26T09:56:22;101194.69;;;33.20;28.24
75855;BME280;64502;59.976;30.316;2023-06-26T09:58:49;101194.63;;;33.64;27.29
75855;BME280;64502;59.976;30.316;2023-06-26T10:01:14;101198.63;;;33.79;26.27
75855;BME280;64502;59.976;30.316;2023-06-26T10:03:40;101193.69;;;34.00;25.98
75855;BME280;64502;59.976;30.316;2023-06-26T10:06:07;101193.91;;;34.17;25.88
75855;BME280;64502;59.976;30.316;2023-06-26T10:08:34;101199.13;;;34.60;29.94
75855;BME280;64502;59.976;30.316;2023-06-26T10:10:59;101183.09;;;34.45;25.42
75855;BME280;64502;59.976;30.316;2023-06-26T10:13:31;101187.34;;;34.60;26.42
75855;BME280;64502;59.976;30.316;2023-06-26T10:16:00;101182.53;;;34.43;26.17
75855;BME280;64502;59.976;30.316;2023-06-26T10:18:27;101186.22;;;33.77;26.96
75855;BME280;64502;59.976;30.316;2023-06-26T10:20:55;101189.84;;;33.59;27.41
75855;BME280;64502;59.976;30.316;2023-06-26T10:23:21;101176.75;;;33.91;30.19
75855;BME280;64502;59.976;30.316;2023-06-26T10:25:51;101170.91;;;34.18;27.25
75855;BME280;64502;59.976;30.316;2023-06-26T10:28:19;101171.28;;;34.33;26.71
75855;BME280;64502;59.976;30.316;2023-06-26T10:30:46;101158.97;;;34.12;26.82
75855;BME280;64502;59.976;30.316;2023-06-26T10:33:13;101168.22;;;34.53;26.08
75855;BME280;64502;59.976;30.316;2023-06-26T10:35:45;101164.31;;;34.61;26.38
75855;BME280;64502;59.976;30.316;2023-06-26T10:38:11;101168.91;;;34.25;25.69
75855;BME280;64502;59.976;30.316;2023-06-26T10:40:47;101173.03;;;34.16;26.90
75855;BME280;64502;59.976;30.316;2023-06-26T10:43:14;101166.88;;;34.32;25.58
75855;BME280;64502;59.976;30.316;2023-06-26T10:45:48;101163.44;;;34.48;26.49
75855;BME280;64502;59.976;30.316;2023-06-26T10:48:18;101163.13;;;33.73;26.76
75855;BME280;64502;59.976;30.316;2023-06-26T10:50:47;101166.50;;;33.01;28.51
75855;BME280;64502;59.976;30.316;2023-06-26T10:55:51;101171.69;;;32.09;29.75
75855;BME280;64502;59.976;30.316;2023-06-26T10:58:33;101169.75;;;31.78;30.19
75855;BME280;64502;59.976;30.316;2023-06-26T11:03:41;101167.44;;;31.30;30.27
75855;BME280;64502;59.976;30.316;2023-06-26T11:06:11;101168.56;;;31.02;31.04
75855;BME280;64502;59.976;30.316;2023-06-26T11:08:48;101156.22;;;30.66;31.00
75855;BME280;64502;59.976;30.316;2023-06-26T11:11:14;101174.38;;;30.06;31.46
75855;BME280;64502;59.976;30.316;2023-06-26T11:13:41;101172.13;;;29.55;32.42
75855;BME280;64502;59.976;30.316;2023-06-26T11:16:07;101168.38;;;29.14;32.98
75855;BME280;64502;59.976;30.316;2023-06-26T11:18:32;101174.03;;;28.85;33.33
75855;BME280;64502;59.976;30.316;2023-06-26T11:21:24;101159.69;;;28.69;34.17
75855;BME280;64502;59.976;30.316;2023-06-26T11:23:50;101157.22;;;28.25;33.87
75855;BME280;64502;59.976;30.316;2023-06-26T11:26:19;101155.56;;;28.02;35.29
75855;BME280;64502;59.976;30.316;2023-06-26T11:28:54;101162.06;;;27.86;34.87
75855;BME280;64502;59.976;30.316;2023-06-26T11:31:27;101145.28;;;27.98;35.69
75855;BME280;64502;59.976;30.316;2023-06-26T11:33:54;101140.34;;;28.51;34.64
75855;BME280;64502;59.976;30.316;2023-06-26T11:36:23;101143.31;;;28.84;34.57
75855;BME280;64502;59.976;30.316;2023-06-26T11:39:02;101135.00;;;28.92;34.57
75855;BME280;64502;59.976;30.316;2023-06-26T11:41:30;101149.28;;;28.73;34.56
75855;BME280;64502;59.976;30.316;2023-06-26T11:44:00;101140.16;;;28.31;35.37
75855;BME280;64502;59.976;30.316;2023-06-26T11:46:26;101142.94;;;27.95;36.21
75855;BME280;64502;59.976;30.316;2023-06-26T11:48:51;101153.03;;;27.64;36.42
75855;BME280;64502;59.976;30.316;2023-06-26T11:51:17;101149.81;;;27.39;37.03
75855;BME280;64502;59.976;30.316;2023-06-26T11:53:44;101155.31;;;27.16;37.48
75855;BME280;64502;59.976;30.316;2023-06-26T11:56:17;101152.59;;;27.01;37.89
75855;BME280;64502;59.976;30.316;2023-06-26T11:59:21;101154.44;;;26.86;36.84
75855;BME280;64502;59.976;30.316;2023-06-26T12:01:50;101159.44;;;26.60;37.25
75855;BME280;64502;59.976;30.316;2023-06-26T12:04:17;101161.44;;;26.66;37.10
75855;BME280;64502;59.976;30.316;2023-06-26T12:06:51;101163.13;;;26.44;37.91
75855;BME280;64502;59.976;30.316;2023-06-26T12:09:19;101166.31;;;26.24;38.28
75855;BME280;64502;59.976;30.316;2023-06-26T12:11:47;101159.66;;;26.12;38.51
75855;BME280;64502;59.976;30.316;2023-06-26T12:14:14;101165.19;;;25.96;39.16
75855;BME280;64502;59.976;30.316;2023-06-26T12:16:40;101155.13;;;25.81;39.22
75855;BME280;64502;59.976;30.316;2023-06-26T12:19:07;101154.28;;;25.73;40.19
75855;BME280;64502;59.976;30.316;2023-06-26T12:24:01;101170.59;;;25.56;40.52
75855;BME280;64502;59.976;30.316;2023-06-26T12:26:27;101206.53;;;25.25;40.90
75855;BME280;64502;59.976;30.316;2023-06-26T12:29:01;101194.81;;;24.61;44.72
75855;BME280;64502;59.976;30.316;2023-06-26T12:31:27;101204.94;;;23.84;51.31
75855;BME280;64502;59.976;30.316;2023-06-26T12:33:52;101218.06;;;21.85;59.54
75855;BME280;64502;59.976;30.316;2023-06-26T12:36:18;101220.25;;;20.19;67.97
75855;BME280;64502;59.976;30.316;2023-06-26T12:38:45;101231.34;;;19.03;71.50
75855;BME280;64502;59.976;30.316;2023-06-26T12:41:12;101235.44;;;18.33;74.73
75855;BME280;64502;59.976;30.316;2023-06-26T12:43:39;101224.50;;;17.92;76.31
75855;BME280;64502;59.976;30.316;2023-06-26T12:46:05;101223.53;;;17.71;77.03
75855;BME280;64502;59.976;30.316;2023-06-26T12:48:44;101221.25;;;17.55;75.40
75855;BME280;64502;59.976;30.316;2023-06-26T12:51:16;101216.38;;;17.38;78.14
75855;BME280;64502;59.976;30.316;2023-06-26T12:53:42;101209.09;;;17.28;78.88
75855;BME280;64502;59.976;30.316;2023-06-26T12:56:08;101205.34;;;17.31;80.09
75855;BME280;64502;59.976;30.316;2023-06-26T12:58:35;101201.84;;;17.30;79.05